createdAt,value
2017-02-27T00:00:02.183Z,62.94
2017-02-27T00:00:06.528Z,62.47
2017-02-27T00:00:11.023Z,62.56
2017-02-27T00:00:15.721Z,62.37
2017-02-27T00:00:20.214Z,62.28
2017-02-27T00:00:24.708Z,62.37
2017-02-27T00:00:29.189Z,62.28
2017-02-27T00:00:33.836Z,62.28
2017-02-27T00:00:38.486Z,62.18
2017-02-27T00:00:43.144Z,62.47
2017-02-27T00:00:47.782Z,62.28
2017-02-27T00:00:52.422Z,62.08
2017-02-27T00:00:57.067Z,62.28
2017-02-27T00:01:01.713Z,62.08
2017-02-27T00:01:06.371Z,62.37
2017-02-27T00:01:10.896Z,62.18
2017-02-27T00:01:15.553Z,62.56
2017-02-27T00:01:19.899Z,62.56
2017-02-27T00:01:24.396Z,62.56
2017-02-27T00:01:29.039Z,62.56
2017-02-27T00:01:33.442Z,62.47
2017-02-27T00:01:37.931Z,62.37
2017-02-27T00:01:42.577Z,62.37
2017-02-27T00:01:47.222Z,62.28
2017-02-27T00:01:51.733Z,62.56
2017-02-27T00:01:56.224Z,62.56
2017-02-27T00:02:00.867Z,62.66
2017-02-27T00:02:05.459Z,62.28
2017-02-27T00:02:09.944Z,62.56
2017-02-27T00:02:14.592Z,62.66
2017-02-27T00:02:19.144Z,62.66
2017-02-27T00:02:23.779Z,62.56
2017-02-27T00:02:28.416Z,62.47
2017-02-27T00:02:32.897Z,62.47
2017-02-27T00:02:37.540Z,62.47
2017-02-27T00:02:42.045Z,62.47
2017-02-27T00:02:46.446Z,62.47
2017-02-27T00:02:50.951Z,62.47
2017-02-27T00:02:55.440Z,62.47
2017-02-27T00:03:00.097Z,62.47
2017-02-27T00:03:04.841Z,62.56
2017-02-27T00:03:09.490Z,62.18
2017-02-27T00:03:14.004Z,62.47
2017-02-27T00:03:18.666Z,62.56
2017-02-27T00:03:23.149Z,62.47
2017-02-27T00:03:27.784Z,62.47
2017-02-27T00:03:32.125Z,62.18
2017-02-27T00:03:36.625Z,62.18
2017-02-27T00:03:41.270Z,62.18
2017-02-27T00:03:45.756Z,62.47
2017-02-27T00:03:50.250Z,62.47
2017-02-27T00:03:54.888Z,62.18
2017-02-27T00:03:59.595Z,62.18
2017-02-27T00:04:04.483Z,62.28
2017-02-27T00:04:09.006Z,62.18
2017-02-27T00:04:13.513Z,62.18
2017-02-27T00:04:18.162Z,62.47
2017-02-27T00:04:22.710Z,62.18
2017-02-27T00:04:27.358Z,62.18
2017-02-27T00:04:31.990Z,62.18
2017-02-27T00:04:36.623Z,62.47
2017-02-27T00:04:41.290Z,62.28
2017-02-27T00:04:45.842Z,62.08
2017-02-27T00:04:50.348Z,62.18
2017-02-27T00:04:54.994Z,62.28
2017-02-27T00:04:59.644Z,62.47
2017-02-27T00:05:04.290Z,62.47
2017-02-27T00:05:08.942Z,62.47
2017-02-27T00:05:13.570Z,62.47
2017-02-27T00:05:18.198Z,62.47
2017-02-27T00:05:22.552Z,62.47
2017-02-27T00:05:27.049Z,62.66
2017-02-27T00:05:31.707Z,62.56
2017-02-27T00:05:36.227Z,62.28
2017-02-27T00:05:40.708Z,62.37
2017-02-27T00:05:45.356Z,62.28
2017-02-27T00:05:49.992Z,62.56
2017-02-27T00:05:54.506Z,62.47
2017-02-27T00:05:59.152Z,62.66
2017-02-27T00:06:03.687Z,62.18
2017-02-27T00:06:08.023Z,62.66
2017-02-27T00:06:12.667Z,62.18
2017-02-27T00:06:17.302Z,62.28
2017-02-27T00:06:21.520Z,62.08
2017-02-27T00:06:26.223Z,62.56
2017-02-27T00:06:30.853Z,62.08
2017-02-27T00:06:35.379Z,61.99
2017-02-27T00:06:39.876Z,62.47
2017-02-27T00:06:44.523Z,62.47
2017-02-27T00:06:49.169Z,62.56
2017-02-27T00:06:53.521Z,62.47
2017-02-27T00:06:58.169Z,62.28
2017-02-27T00:07:02.817Z,62.28
2017-02-27T00:07:07.300Z,62.24
2017-02-27T00:07:11.936Z,62.37
2017-02-27T00:07:16.567Z,62.43
2017-02-27T00:07:20.912Z,62.37
2017-02-27T00:07:25.422Z,62.28
2017-02-27T00:07:29.911Z,62.56
2017-02-27T00:07:34.410Z,62.53
2017-02-27T00:07:39.072Z,62.05
2017-02-27T00:07:43.560Z,62.24
2017-02-27T00:07:48.058Z,62.28
2017-02-27T00:07:52.693Z,62.24
2017-02-27T00:07:57.187Z,62.24
2017-02-27T00:08:02.207Z,62.28
2017-02-27T00:08:06.708Z,62.37
2017-02-27T00:08:11.227Z,62.72
2017-02-27T00:08:15.861Z,62.43
2017-02-27T00:08:20.514Z,62.37
2017-02-27T00:08:25.170Z,62.37
2017-02-27T00:08:29.689Z,62.47
2017-02-27T00:08:34.178Z,62.24
2017-02-27T00:08:38.829Z,62.37
2017-02-27T00:08:43.324Z,62.43
2017-02-27T00:08:47.965Z,62.47
2017-02-27T00:08:52.451Z,62.28
2017-02-27T00:08:57.149Z,62.34
2017-02-27T00:09:01.667Z,62.47
2017-02-27T00:09:06.338Z,62.53
2017-02-27T00:09:10.842Z,62.43
2017-02-27T00:09:15.471Z,62.47
2017-02-27T00:09:19.989Z,62.37
2017-02-27T00:09:24.479Z,62.24
2017-02-27T00:09:29.124Z,62.43
2017-02-27T00:09:33.614Z,62.37
2017-02-27T00:09:38.106Z,62.15
2017-02-27T00:09:42.753Z,62.43
2017-02-27T00:09:47.398Z,62.43
2017-02-27T00:09:51.876Z,62.24
2017-02-27T00:09:56.388Z,62.43
2017-02-27T00:10:01.034Z,62.24
2017-02-27T00:10:05.740Z,62.28
2017-02-27T00:10:10.233Z,62.24
2017-02-27T00:10:14.885Z,62.43
2017-02-27T00:10:19.537Z,62.47
2017-02-27T00:10:24.186Z,62.43
2017-02-27T00:10:28.822Z,62.43
2017-02-27T00:10:33.206Z,62.91
2017-02-27T00:10:37.724Z,62.91
2017-02-27T00:10:42.223Z,62.82
2017-02-27T00:10:46.730Z,62.53
2017-02-27T00:10:51.367Z,62.82
2017-02-27T00:10:56.031Z,62.82
2017-02-27T00:11:00.678Z,62.43
2017-02-27T00:11:05.289Z,62.62
2017-02-27T00:11:09.929Z,62.82
2017-02-27T00:11:14.426Z,62.82
2017-02-27T00:11:18.931Z,62.62
2017-02-27T00:11:23.289Z,62.82
2017-02-27T00:11:27.782Z,63.01
2017-02-27T00:11:32.291Z,63.1
2017-02-27T00:11:36.943Z,63.1
2017-02-27T00:11:41.432Z,63.01
2017-02-27T00:11:45.919Z,62.72
2017-02-27T00:11:50.431Z,63.01
2017-02-27T00:11:55.080Z,63.1
2017-02-27T00:11:59.756Z,63.1
2017-02-27T00:12:04.099Z,63.1
2017-02-27T00:12:08.321Z,63.2
2017-02-27T00:12:12.972Z,63.2
2017-02-27T00:12:17.630Z,63.1
2017-02-27T00:12:22.275Z,63.29
2017-02-27T00:12:26.780Z,63.39
2017-02-27T00:12:31.417Z,63.1
2017-02-27T00:12:36.072Z,63.01
2017-02-27T00:12:40.584Z,63.01
2017-02-27T00:12:45.219Z,63.01
2017-02-27T00:12:49.860Z,63.01
2017-02-27T00:12:54.496Z,63.29
2017-02-27T00:12:59.126Z,63.01
2017-02-27T00:13:03.881Z,63.1
2017-02-27T00:13:08.523Z,63.1
2017-02-27T00:13:13.173Z,63.48
2017-02-27T00:13:17.811Z,63.2
2017-02-27T00:13:22.320Z,63.29
2017-02-27T00:13:26.975Z,63.29
2017-02-27T00:13:31.337Z,63.2
2017-02-27T00:13:35.867Z,63.29
2017-02-27T00:13:40.519Z,63.2
2017-02-27T00:13:45.018Z,63.39
2017-02-27T00:13:49.693Z,63.29
2017-02-27T00:13:54.198Z,63.39
2017-02-27T00:13:58.849Z,63.48
2017-02-27T00:14:03.199Z,63.1
2017-02-27T00:14:07.726Z,63.48
2017-02-27T00:14:12.215Z,63.29
2017-02-27T00:14:16.859Z,63.39
2017-02-27T00:14:21.502Z,63.29
2017-02-27T00:14:26.151Z,63.29
2017-02-27T00:14:30.809Z,63.29
2017-02-27T00:14:35.286Z,63.29
2017-02-27T00:14:39.934Z,63.39
2017-02-27T00:14:44.445Z,63.39
2017-02-27T00:14:49.078Z,63.29
2017-02-27T00:14:53.574Z,63.29
2017-02-27T00:14:58.055Z,63.2
2017-02-27T00:15:02.691Z,63.39
2017-02-27T00:15:07.188Z,63.2
2017-02-27T00:15:11.676Z,63.48
2017-02-27T00:15:16.225Z,63.29
2017-02-27T00:15:20.876Z,63.2
2017-02-27T00:15:25.522Z,63.29
2017-02-27T00:15:30.177Z,63.29
2017-02-27T00:15:34.674Z,63.29
2017-02-27T00:15:39.322Z,63.2
2017-02-27T00:15:43.957Z,63.39
2017-02-27T00:15:48.604Z,63.2
2017-02-27T00:15:53.101Z,63.48
2017-02-27T00:15:57.741Z,63.39
2017-02-27T00:16:02.336Z,63.48
2017-02-27T00:16:06.985Z,63.48
2017-02-27T00:16:11.625Z,63.76
2017-02-27T00:16:15.964Z,63.76
2017-02-27T00:16:20.657Z,63.57
2017-02-27T00:16:25.307Z,63.57
2017-02-27T00:16:29.803Z,63.85
2017-02-27T00:16:34.287Z,63.76
2017-02-27T00:16:38.792Z,63.85
2017-02-27T00:16:43.308Z,63.76
2017-02-27T00:16:47.946Z,63.76
2017-02-27T00:16:52.595Z,63.85
2017-02-27T00:16:57.227Z,63.76
2017-02-27T00:17:01.875Z,63.76
2017-02-27T00:17:06.365Z,63.48
2017-02-27T00:17:10.860Z,63.85
2017-02-27T00:17:15.216Z,63.95
2017-02-27T00:17:19.715Z,63.95
2017-02-27T00:17:24.366Z,64.04
2017-02-27T00:17:29.002Z,63.95
2017-02-27T00:17:33.495Z,63.95
2017-02-27T00:17:38.147Z,64.04
2017-02-27T00:17:42.662Z,63.85
2017-02-27T00:17:47.195Z,63.76
2017-02-27T00:17:51.823Z,63.95
2017-02-27T00:17:56.480Z,64.04
2017-02-27T00:18:01.142Z,64.33
2017-02-27T00:18:05.802Z,64.14
2017-02-27T00:18:10.005Z,64.33
2017-02-27T00:18:14.348Z,64.33
2017-02-27T00:18:18.996Z,64.33
2017-02-27T00:18:23.649Z,64.04
2017-02-27T00:18:28.134Z,64.14
2017-02-27T00:18:32.626Z,64.14
2017-02-27T00:18:36.989Z,64.14
2017-02-27T00:18:41.486Z,64.33
2017-02-27T00:18:45.973Z,63.95
2017-02-27T00:18:50.641Z,64.14
2017-02-27T00:18:55.269Z,64.14
2017-02-27T00:18:59.917Z,64.14
2017-02-27T00:19:04.628Z,64.23
2017-02-27T00:19:09.266Z,64.04
2017-02-27T00:19:13.771Z,64.04
2017-02-27T00:19:18.105Z,64.23
2017-02-27T00:19:22.465Z,64.23
2017-02-27T00:19:27.185Z,64.04
2017-02-27T00:19:31.815Z,64.04
2017-02-27T00:19:36.488Z,63.95
2017-02-27T00:19:41.142Z,63.95
2017-02-27T00:19:45.652Z,64.23
2017-02-27T00:19:50.344Z,64.23
2017-02-27T00:19:54.831Z,64.04
2017-02-27T00:19:59.460Z,64.04
2017-02-27T00:20:04.002Z,64.14
2017-02-27T00:20:08.541Z,64.14
2017-02-27T00:20:13.036Z,64.14
2017-02-27T00:20:17.549Z,64.04
2017-02-27T00:20:21.887Z,64.23
2017-02-27T00:20:26.530Z,63.95
2017-02-27T00:20:31.045Z,64.04
2017-02-27T00:20:35.563Z,64.14
2017-02-27T00:20:40.241Z,63.95
2017-02-27T00:20:44.877Z,63.95
2017-02-27T00:20:49.512Z,64.04
2017-02-27T00:20:54.025Z,64.23
2017-02-27T00:20:58.676Z,64.14
2017-02-27T00:21:03.387Z,64.42
2017-02-27T00:21:08.040Z,63.95
2017-02-27T00:21:12.693Z,64.14
2017-02-27T00:21:17.215Z,64.14
2017-02-27T00:21:21.723Z,64.14
2017-02-27T00:21:26.072Z,64.23
2017-02-27T00:21:30.571Z,64.23
2017-02-27T00:21:35.075Z,64.23
2017-02-27T00:21:39.712Z,64.23
2017-02-27T00:21:44.224Z,64.23
2017-02-27T00:21:48.855Z,64.33
2017-02-27T00:21:53.505Z,64.14
2017-02-27T00:21:57.989Z,64.42
2017-02-27T00:22:02.998Z,64.42
2017-02-27T00:22:07.358Z,64.14
2017-02-27T00:22:11.708Z,64.23
2017-02-27T00:22:16.218Z,64.14
2017-02-27T00:22:20.856Z,64.23
2017-02-27T00:22:25.495Z,64.42
2017-02-27T00:22:29.998Z,64.23
2017-02-27T00:22:34.494Z,64.52
2017-02-27T00:22:39.122Z,64.71
2017-02-27T00:22:43.665Z,64.52
2017-02-27T00:22:48.312Z,64.33
2017-02-27T00:22:52.837Z,64.52
2017-02-27T00:22:57.469Z,64.52
2017-02-27T00:23:02.273Z,64.52
2017-02-27T00:23:06.927Z,64.71
2017-02-27T00:23:11.571Z,64.71
2017-02-27T00:23:15.945Z,64.52
2017-02-27T00:23:20.431Z,64.23
2017-02-27T00:23:24.948Z,64.61
2017-02-27T00:23:29.585Z,64.52
2017-02-27T00:23:34.105Z,64.71
2017-02-27T00:23:38.454Z,64.52
2017-02-27T00:23:42.954Z,64.42
2017-02-27T00:23:47.446Z,64.14
2017-02-27T00:23:51.929Z,64.42
2017-02-27T00:23:56.426Z,64.52
2017-02-27T00:24:01.119Z,64.61
2017-02-27T00:24:05.680Z,64.52
2017-02-27T00:24:10.034Z,64.71
2017-02-27T00:24:14.379Z,64.61
2017-02-27T00:24:19.020Z,64.42
2017-02-27T00:24:23.515Z,64.42
2017-02-27T00:24:28.175Z,64.33
2017-02-27T00:24:32.811Z,64.52
2017-02-27T00:24:37.318Z,64.23
2017-02-27T00:24:41.671Z,64.52
2017-02-27T00:24:46.171Z,64.14
2017-02-27T00:24:50.533Z,64.52
2017-02-27T00:24:55.020Z,64.81
2017-02-27T00:24:59.644Z,64.33
2017-02-27T00:25:04.392Z,64.33
2017-02-27T00:25:08.734Z,64.52
2017-02-27T00:25:13.396Z,64.52
2017-02-27T00:25:17.936Z,64.33
2017-02-27T00:25:22.436Z,64.42
2017-02-27T00:25:26.794Z,64.33
2017-02-27T00:25:31.287Z,64.42
2017-02-27T00:25:35.659Z,64.33
2017-02-27T00:25:40.152Z,64.23
2017-02-27T00:25:44.791Z,64.23
2017-02-27T00:25:49.431Z,64.33
2017-02-27T00:25:53.765Z,64.33
2017-02-27T00:25:58.415Z,64.23
2017-02-27T00:26:03.274Z,64.23
2017-02-27T00:26:07.753Z,64.23
2017-02-27T00:26:12.387Z,64.23
2017-02-27T00:26:17.047Z,64.14
2017-02-27T00:26:21.385Z,64.42
2017-02-27T00:26:25.898Z,63.95
2017-02-27T00:26:30.138Z,64.14
2017-02-27T00:26:34.636Z,64.52
2017-02-27T00:26:39.279Z,64.52
2017-02-27T00:26:43.953Z,64.42
2017-02-27T00:26:48.599Z,64.61
2017-02-27T00:26:53.241Z,64.71
2017-02-27T00:26:57.898Z,64.61
2017-02-27T00:27:02.746Z,64.52
2017-02-27T00:27:07.117Z,64.71
2017-02-27T00:27:11.604Z,64.52
2017-02-27T00:27:16.143Z,64.52
2017-02-27T00:27:20.500Z,64.14
2017-02-27T00:27:25.006Z,64.23
2017-02-27T00:27:29.675Z,64.23
2017-02-27T00:27:34.167Z,64.42
2017-02-27T00:27:38.516Z,64.71
2017-02-27T00:27:43.171Z,64.14
2017-02-27T00:27:47.843Z,64.33
2017-02-27T00:27:52.340Z,64.52
2017-02-27T00:27:56.843Z,64.81
2017-02-27T00:28:01.487Z,65.09
2017-02-27T00:28:06.310Z,65
2017-02-27T00:28:10.952Z,65
2017-02-27T00:28:15.445Z,64.9
2017-02-27T00:28:20.098Z,64.9
2017-02-27T00:28:24.743Z,65
2017-02-27T00:28:29.406Z,64.9
2017-02-27T00:28:34.055Z,64.81
2017-02-27T00:28:38.700Z,64.61
2017-02-27T00:28:43.336Z,64.71
2017-02-27T00:28:48.014Z,65
2017-02-27T00:28:52.670Z,64.81
2017-02-27T00:28:57.305Z,64.81
2017-02-27T00:29:01.954Z,65
2017-02-27T00:29:06.443Z,64.81
2017-02-27T00:29:10.942Z,64.61
2017-02-27T00:29:15.572Z,64.81
2017-02-27T00:29:20.233Z,64.9
2017-02-27T00:29:24.780Z,65.09
2017-02-27T00:29:29.446Z,65.09
2017-02-27T00:29:33.944Z,65.09
2017-02-27T00:29:38.438Z,65.09
2017-02-27T00:29:42.930Z,65.09
2017-02-27T00:29:47.567Z,65
2017-02-27T00:29:52.067Z,65.09
2017-02-27T00:29:56.577Z,65
2017-02-27T00:30:01.220Z,65
2017-02-27T00:30:05.729Z,65
2017-02-27T00:30:10.234Z,64.81
2017-02-27T00:30:14.875Z,64.71
2017-02-27T00:30:19.238Z,64.9
2017-02-27T00:30:23.429Z,64.71
2017-02-27T00:30:27.921Z,64.9
2017-02-27T00:30:32.565Z,64.71
2017-02-27T00:30:37.211Z,64.81
2017-02-27T00:30:41.563Z,65
2017-02-27T00:30:46.060Z,64.81
2017-02-27T00:30:50.547Z,64.81
2017-02-27T00:30:55.199Z,64.9
2017-02-27T00:30:59.831Z,64.9
2017-02-27T00:31:04.469Z,65
2017-02-27T00:31:09.122Z,65
2017-02-27T00:31:13.767Z,65
2017-02-27T00:31:18.405Z,65
2017-02-27T00:31:22.903Z,65
2017-02-27T00:31:27.397Z,64.81
2017-02-27T00:31:31.756Z,64.81
2017-02-27T00:31:36.255Z,65
2017-02-27T00:31:40.754Z,64.9
2017-02-27T00:31:45.399Z,64.81
2017-02-27T00:31:50.048Z,64.9
2017-02-27T00:31:54.676Z,64.81
2017-02-27T00:31:59.347Z,64.81
2017-02-27T00:32:03.850Z,65
2017-02-27T00:32:08.339Z,64.42
2017-02-27T00:32:12.982Z,64.42
2017-02-27T00:32:17.478Z,64.23
2017-02-27T00:32:22.002Z,64.33
2017-02-27T00:32:26.479Z,64.42
2017-02-27T00:32:31.115Z,64.42
2017-02-27T00:32:35.471Z,64.23
2017-02-27T00:32:40.119Z,64.33
2017-02-27T00:32:44.762Z,65
2017-02-27T00:32:49.392Z,64.9
2017-02-27T00:32:54.029Z,65
2017-02-27T00:32:58.673Z,64.81
2017-02-27T00:33:03.320Z,64.9
2017-02-27T00:33:07.959Z,64.9
2017-02-27T00:33:12.617Z,64.81
2017-02-27T00:33:17.121Z,65
2017-02-27T00:33:21.758Z,65.09
2017-02-27T00:33:26.245Z,64.81
2017-02-27T00:33:30.740Z,65
2017-02-27T00:33:35.391Z,64.9
2017-02-27T00:33:40.034Z,64.9
2017-02-27T00:33:44.666Z,64.81
2017-02-27T00:33:49.308Z,64.61
2017-02-27T00:33:53.789Z,64.81
2017-02-27T00:33:58.426Z,64.9
2017-02-27T00:34:02.925Z,65.19
2017-02-27T00:34:07.426Z,65.19
2017-02-27T00:34:12.074Z,65.09
2017-02-27T00:34:16.718Z,65.37
2017-02-27T00:34:21.064Z,65
2017-02-27T00:34:25.419Z,65.19
2017-02-27T00:34:29.773Z,65.66
2017-02-27T00:34:34.266Z,65.84
2017-02-27T00:34:38.919Z,65.66
2017-02-27T00:34:43.404Z,65.56
2017-02-27T00:34:48.062Z,65.75
2017-02-27T00:34:52.553Z,65.47
2017-02-27T00:34:57.070Z,65.84
2017-02-27T00:35:01.728Z,65.84
2017-02-27T00:35:06.213Z,65.19
2017-02-27T00:35:10.889Z,65.94
2017-02-27T00:35:15.390Z,65.37
2017-02-27T00:35:19.875Z,65.94
2017-02-27T00:35:24.365Z,65.28
2017-02-27T00:35:29.017Z,65.28
2017-02-27T00:35:33.376Z,65.28
2017-02-27T00:35:37.866Z,65.09
2017-02-27T00:35:42.367Z,65.09
2017-02-27T00:35:46.857Z,65.75
2017-02-27T00:35:51.358Z,65.28
2017-02-27T00:35:55.853Z,65.37
2017-02-27T00:36:00.481Z,65.56
2017-02-27T00:36:05.189Z,65
2017-02-27T00:36:09.693Z,65.37
2017-02-27T00:36:14.332Z,65.56
2017-02-27T00:36:18.995Z,65.84
2017-02-27T00:36:23.498Z,65.47
2017-02-27T00:36:28.015Z,65.37
2017-02-27T00:36:32.660Z,65.47
2017-02-27T00:36:37.284Z,65.37
2017-02-27T00:36:41.772Z,65.56
2017-02-27T00:36:46.266Z,65.56
2017-02-27T00:36:50.615Z,65.66
2017-02-27T00:36:54.970Z,65.47
2017-02-27T00:36:59.628Z,65.47
2017-02-27T00:37:04.071Z,65.47
2017-02-27T00:37:08.710Z,65.56
2017-02-27T00:37:13.361Z,65.56
2017-02-27T00:37:18.021Z,65.66
2017-02-27T00:37:22.674Z,65.66
2017-02-27T00:37:27.173Z,65.47
2017-02-27T00:37:31.665Z,65.56
2017-02-27T00:37:36.010Z,65.66
2017-02-27T00:37:40.356Z,65.47
2017-02-27T00:37:45.006Z,65.56
2017-02-27T00:37:49.660Z,65.47
2017-02-27T00:37:54.305Z,65.56
2017-02-27T00:37:58.945Z,65.84
2017-02-27T00:38:03.587Z,65.47
2017-02-27T00:38:07.948Z,65.56
2017-02-27T00:38:12.618Z,65.37
2017-02-27T00:38:17.280Z,65.56
2017-02-27T00:38:21.913Z,65.37
2017-02-27T00:38:26.555Z,65.37
2017-02-27T00:38:31.069Z,65.47
2017-02-27T00:38:35.576Z,65.56
2017-02-27T00:38:40.080Z,65.56
2017-02-27T00:38:44.721Z,65.56
2017-02-27T00:38:49.363Z,65.66
2017-02-27T00:38:53.856Z,65.66
2017-02-27T00:38:58.498Z,65.47
2017-02-27T00:39:03.302Z,65.66
2017-02-27T00:39:07.790Z,65.66
2017-02-27T00:39:12.280Z,65.66
2017-02-27T00:39:16.763Z,65.56
2017-02-27T00:39:21.401Z,65.56
2017-02-27T00:39:26.053Z,65.66
2017-02-27T00:39:30.416Z,65.66
2017-02-27T00:39:35.070Z,65.56
2017-02-27T00:39:39.702Z,65.66
2017-02-27T00:39:44.194Z,65.66
2017-02-27T00:39:48.689Z,65.66
2017-02-27T00:39:53.337Z,65.47
2017-02-27T00:39:57.971Z,65.37
2017-02-27T00:40:02.863Z,65.37
2017-02-27T00:40:07.362Z,65.28
2017-02-27T00:40:11.994Z,65.37
2017-02-27T00:40:16.679Z,65.19
2017-02-27T00:40:21.039Z,65.47
2017-02-27T00:40:25.534Z,65.19
2017-02-27T00:40:30.025Z,65.66
2017-02-27T00:40:34.519Z,65.47
2017-02-27T00:40:39.018Z,65.37
2017-02-27T00:40:43.673Z,66.03
2017-02-27T00:40:48.330Z,65.84
2017-02-27T00:40:52.958Z,65.37
2017-02-27T00:40:57.650Z,65.56
2017-02-27T00:41:02.310Z,65.56
2017-02-27T00:41:06.811Z,65.84
2017-02-27T00:41:11.456Z,65.66
2017-02-27T00:41:15.938Z,65.75
2017-02-27T00:41:20.574Z,65.28
2017-02-27T00:41:25.090Z,65.19
2017-02-27T00:41:29.730Z,65
2017-02-27T00:41:34.445Z,65.28
2017-02-27T00:41:38.797Z,65.28
2017-02-27T00:41:43.434Z,65.28
2017-02-27T00:41:48.076Z,65.28
2017-02-27T00:41:52.570Z,65.28
2017-02-27T00:41:57.222Z,65.09
2017-02-27T00:42:01.866Z,65.09
2017-02-27T00:42:06.347Z,65.09
2017-02-27T00:42:10.985Z,65.09
2017-02-27T00:42:15.465Z,65.09
2017-02-27T00:42:20.112Z,65.28
2017-02-27T00:42:24.633Z,65.37
2017-02-27T00:42:29.273Z,65.28
2017-02-27T00:42:33.627Z,65.28
2017-02-27T00:42:38.123Z,65.37
2017-02-27T00:42:42.620Z,65.28
2017-02-27T00:42:47.266Z,65.28
2017-02-27T00:42:51.910Z,65.19
2017-02-27T00:42:56.542Z,65.28
2017-02-27T00:43:01.179Z,65.28
2017-02-27T00:43:05.695Z,65.28
2017-02-27T00:43:10.343Z,65.28
2017-02-27T00:43:14.994Z,65.47
2017-02-27T00:43:19.489Z,65.19
2017-02-27T00:43:24.131Z,65.47
2017-02-27T00:43:28.755Z,65.75
2017-02-27T00:43:33.253Z,65.56
2017-02-27T00:43:37.456Z,65.19
2017-02-27T00:43:42.104Z,65.37
2017-02-27T00:43:46.748Z,65.37
2017-02-27T00:43:51.397Z,65.37
2017-02-27T00:43:55.868Z,65.75
2017-02-27T00:44:00.523Z,65.47
2017-02-27T00:44:05.030Z,65.19
2017-02-27T00:44:09.359Z,65.75
2017-02-27T00:44:13.993Z,65.94
2017-02-27T00:44:18.647Z,66.32
2017-02-27T00:44:22.997Z,66.32
2017-02-27T00:44:27.488Z,66.03
2017-02-27T00:44:32.134Z,66.13
2017-02-27T00:44:36.477Z,66.03
2017-02-27T00:44:40.995Z,66.13
2017-02-27T00:44:45.474Z,66.6
2017-02-27T00:44:50.113Z,66.7
2017-02-27T00:44:54.759Z,66.51
2017-02-27T00:44:59.411Z,66.6
2017-02-27T00:45:03.920Z,66.7
2017-02-27T00:45:08.555Z,66.51
2017-02-27T00:45:13.213Z,66.7
2017-02-27T00:45:17.853Z,66.41
2017-02-27T00:45:22.519Z,66.41
2017-02-27T00:45:27.014Z,66.51
2017-02-27T00:45:31.366Z,66.7
2017-02-27T00:45:35.872Z,66.8
2017-02-27T00:45:40.531Z,66.8
2017-02-27T00:45:45.043Z,66.89
2017-02-27T00:45:49.686Z,66.8
2017-02-27T00:45:54.158Z,66.89
2017-02-27T00:45:58.801Z,66.7
2017-02-27T00:46:03.454Z,66.6
2017-02-27T00:46:08.145Z,66.6
2017-02-27T00:46:12.788Z,66.7
2017-02-27T00:46:17.435Z,66.7
2017-02-27T00:46:22.079Z,67.27
2017-02-27T00:46:26.710Z,66.89
2017-02-27T00:46:31.204Z,66.99
2017-02-27T00:46:35.423Z,67.27
2017-02-27T00:46:39.782Z,66.89
2017-02-27T00:46:44.281Z,67.46
2017-02-27T00:46:48.941Z,67.55
2017-02-27T00:46:53.437Z,67.36
2017-02-27T00:46:58.101Z,67.55
2017-02-27T00:47:03.045Z,67.55
2017-02-27T00:47:07.413Z,67.36
2017-02-27T00:47:12.062Z,67.36
2017-02-27T00:47:16.701Z,67.46
2017-02-27T00:47:21.054Z,67.36
2017-02-27T00:47:25.550Z,67.55
2017-02-27T00:47:30.047Z,67.55
2017-02-27T00:47:34.693Z,67.36
2017-02-27T00:47:39.317Z,67.55
2017-02-27T00:47:43.974Z,67.27
2017-02-27T00:47:48.616Z,67.36
2017-02-27T00:47:53.128Z,67.36
2017-02-27T00:47:57.764Z,67.55
2017-02-27T00:48:02.653Z,67.27
2017-02-27T00:48:07.306Z,67.46
2017-02-27T00:48:11.946Z,67.55
2017-02-27T00:48:16.595Z,67.46
2017-02-27T00:48:21.092Z,67.27
2017-02-27T00:48:25.608Z,67.65
2017-02-27T00:48:30.243Z,67.65
2017-02-27T00:48:34.745Z,67.65
2017-02-27T00:48:39.241Z,67.65
2017-02-27T00:48:43.882Z,67.55
2017-02-27T00:48:48.525Z,67.55
2017-02-27T00:48:53.156Z,67.36
2017-02-27T00:48:57.873Z,67.27
2017-02-27T00:49:02.576Z,67.65
2017-02-27T00:49:07.208Z,67.36
2017-02-27T00:49:11.851Z,66.99
2017-02-27T00:49:16.489Z,66.8
2017-02-27T00:49:21.128Z,67.08
2017-02-27T00:49:25.639Z,67.27
2017-02-27T00:49:30.293Z,67.27
2017-02-27T00:49:34.937Z,67.18
2017-02-27T00:49:39.596Z,67.36
2017-02-27T00:49:43.944Z,67.27
2017-02-27T00:49:48.590Z,67.55
2017-02-27T00:49:53.088Z,67.27
2017-02-27T00:49:57.749Z,67.65
2017-02-27T00:50:02.405Z,67.65
2017-02-27T00:50:07.039Z,67.55
2017-02-27T00:50:11.697Z,67.55
2017-02-27T00:50:16.190Z,67.65
2017-02-27T00:50:20.830Z,67.55
2017-02-27T00:50:25.475Z,67.55
2017-02-27T00:50:29.820Z,67.55
2017-02-27T00:50:34.310Z,67.65
2017-02-27T00:50:38.700Z,67.46
2017-02-27T00:50:43.215Z,67.65
2017-02-27T00:50:47.868Z,67.65
2017-02-27T00:50:52.377Z,67.55
2017-02-27T00:50:56.897Z,67.55
2017-02-27T00:51:01.592Z,67.55
2017-02-27T00:51:06.231Z,67.55
2017-02-27T00:51:10.878Z,67.55
2017-02-27T00:51:15.415Z,67.27
2017-02-27T00:51:19.765Z,67.27
2017-02-27T00:51:24.283Z,66.99
2017-02-27T00:51:28.684Z,66.89
2017-02-27T00:51:33.317Z,67.18
2017-02-27T00:51:37.957Z,66.6
2017-02-27T00:51:42.600Z,66.7
2017-02-27T00:51:47.238Z,66.8
2017-02-27T00:51:51.887Z,66.8
2017-02-27T00:51:56.386Z,66.99
2017-02-27T00:52:01.018Z,66.8
2017-02-27T00:52:05.521Z,66.8
2017-02-27T00:52:10.165Z,66.89
2017-02-27T00:52:14.807Z,67.08
2017-02-27T00:52:19.305Z,66.7
2017-02-27T00:52:23.810Z,66.51
2017-02-27T00:52:28.311Z,66.7
2017-02-27T00:52:32.830Z,66.7
2017-02-27T00:52:37.468Z,66.51
2017-02-27T00:52:41.958Z,66.6
2017-02-27T00:52:46.454Z,66.7
2017-02-27T00:52:51.108Z,66.7
2017-02-27T00:52:55.762Z,66.7
2017-02-27T00:53:00.403Z,66.32
2017-02-27T00:53:05.092Z,66.22
2017-02-27T00:53:09.734Z,66.41
2017-02-27T00:53:14.381Z,66.03
2017-02-27T00:53:19.044Z,65.94
2017-02-27T00:53:23.390Z,66.32
2017-02-27T00:53:28.035Z,66.13
2017-02-27T00:53:32.669Z,66.03
2017-02-27T00:53:37.162Z,66.03
2017-02-27T00:53:41.824Z,66.32
2017-02-27T00:53:46.331Z,65.94
2017-02-27T00:53:50.993Z,66.32
2017-02-27T00:53:55.628Z,66.22
2017-02-27T00:54:00.252Z,66.13
2017-02-27T00:54:04.909Z,66.13
2017-02-27T00:54:09.547Z,66.13
2017-02-27T00:54:14.037Z,66.32
2017-02-27T00:54:18.673Z,66.51
2017-02-27T00:54:22.873Z,66.22
2017-02-27T00:54:27.530Z,66.32
2017-02-27T00:54:32.033Z,66.41
2017-02-27T00:54:36.551Z,66.32
2017-02-27T00:54:41.062Z,66.13
2017-02-27T00:54:45.425Z,66.13
2017-02-27T00:54:50.052Z,66.03
2017-02-27T00:54:54.426Z,65.94
2017-02-27T00:54:59.063Z,66.7
2017-02-27T00:55:03.796Z,66.7
2017-02-27T00:55:08.204Z,66.7
2017-02-27T00:55:12.845Z,66.6
2017-02-27T00:55:17.344Z,66.41
2017-02-27T00:55:21.843Z,66.41
2017-02-27T00:55:26.488Z,66.6
2017-02-27T00:55:31.117Z,66.7
2017-02-27T00:55:35.345Z,66.32
2017-02-27T00:55:39.856Z,66.51
2017-02-27T00:55:44.196Z,66.89
2017-02-27T00:55:48.720Z,66.89
2017-02-27T00:55:53.367Z,67.08
2017-02-27T00:55:57.876Z,66.89
2017-02-27T00:56:02.450Z,66.8
2017-02-27T00:56:06.959Z,67.08
2017-02-27T00:56:11.463Z,67.08
2017-02-27T00:56:15.947Z,67.46
2017-02-27T00:56:20.443Z,67.46
2017-02-27T00:56:24.644Z,67.18
2017-02-27T00:56:29.200Z,67.36
2017-02-27T00:56:33.565Z,67.36
2017-02-27T00:56:38.206Z,67.08
2017-02-27T00:56:42.712Z,67.46
2017-02-27T00:56:47.241Z,67.65
2017-02-27T00:56:51.903Z,67.83
2017-02-27T00:56:56.556Z,67.36
2017-02-27T00:57:01.202Z,67.83
2017-02-27T00:57:20.620Z,67.74
2017-02-27T00:57:25.263Z,67.93
2017-02-27T00:57:29.887Z,67.83
2017-02-27T00:57:34.245Z,68.12
2017-02-27T00:57:38.580Z,67.83
2017-02-27T00:57:43.088Z,67.83
2017-02-27T00:57:47.618Z,68.4
2017-02-27T00:57:52.265Z,68.31
2017-02-27T00:57:56.763Z,68.31
2017-02-27T00:58:01.711Z,68.02
2017-02-27T00:58:06.391Z,68.4
2017-02-27T00:58:11.073Z,68.21
2017-02-27T00:58:15.714Z,67.83
2017-02-27T00:58:20.342Z,68.21
2017-02-27T00:58:24.991Z,68.12
2017-02-27T00:58:29.628Z,68.12
2017-02-27T00:58:33.858Z,68.12
2017-02-27T00:58:38.207Z,68.12
2017-02-27T00:58:42.877Z,68.31
2017-02-27T00:58:47.366Z,68.12
2017-02-27T00:58:51.875Z,67.93
2017-02-27T00:58:56.537Z,68.12
2017-02-27T00:59:01.235Z,68.12
2017-02-27T00:59:05.864Z,68.12
2017-02-27T00:59:10.509Z,68.12
2017-02-27T00:59:15.145Z,68.21
2017-02-27T00:59:19.795Z,68.12
2017-02-27T00:59:24.300Z,68.02